Aviation Digital Data Service (ADDS)

Output produced by METARs form (1020 UTC 20 September 2019)
found at http://aviationweather.gov/metar/data/
 
METAR text: KMTN 200954Z 00000KT 10 FEW250 11/10 A3031 RMK FIRST
Conditions at: KMTN (BALTIMORE/MARTIN, MD, US) observed 0954 UTC 20 September 2019
Temperature: 11.0°C (52°F)
Dewpoint: 10.0°C (50°F) [RH = 94%]
Pressure (altimeter): 30.31 inches Hg (1026.5 mb)
Winds: calm
Visibility: missing
Ceiling: at least 12,000 feet AGL
Clouds: few clouds at 25000 feet AGL
Weather: no significant weather observed at this time

METAR text: KMTN 200930Z AUTO 00000KT 10SM CLR 11/11 A3031 RMK AO2
Conditions at: KMTN (BALTIMORE/MARTIN, MD, US) observed 0930 UTC 20 September 2019
Temperature: 11.0°C (52°F)
Dewpoint: 11.0°C (52°F) [RH = 100%]
Pressure (altimeter): 30.31 inches Hg (1026.5 mb)
Winds: calm
Visibility: 10 or more miles (16+ km)
Ceiling: at least 12,000 feet AGL
Clouds: sky clear below 12,000 feet AGL
Weather: automated observation with no human augmentation;
there may or may not be significant weather present at this time

METAR text: KMTN 200922Z AUTO 00000KT 10SM CLR 11/11 A3031 RMK AO2
Conditions at: KMTN (BALTIMORE/MARTIN, MD, US) observed 0922 UTC 20 September 2019
Temperature: 11.0°C (52°F)
Dewpoint: 11.0°C (52°F) [RH = 100%]
Pressure (altimeter): 30.31 inches Hg (1026.5 mb)
Winds: calm
Visibility: 10 or more miles (16+ km)
Ceiling: at least 12,000 feet AGL
Clouds: sky clear below 12,000 feet AGL
Weather: automated observation with no human augmentation;
there may or may not be significant weather present at this time

Forecast for: KMTN (BALTIMORE/MARTIN, MD, US)
Text: KMTN 200525Z 2006/2106 00000KT P6SM SKC
Forecast period: 0600 to 1400 UTC 20 September 2019
Forecast type: FROM: standard forecast or significant change
Winds: calm
Visibility: 6 or more miles 10+ km)
Clouds: clear skies
Weather: no significant weather forecast for this period
Text: FM201400 24004KT P6SM SKC
Forecast period: 1400 to 1800 UTC 20 September 2019
Forecast type: FROM: standard forecast or significant change
Winds: from the WSW (240 degrees) at 5 MPH (4 knots; 2.1 m/s)
Visibility: 6 or more miles 10+ km)
Clouds: clear skies
Weather: no significant weather forecast for this period
Text: FM201800 19006KT P6SM SKC AMD NOT SKED
Forecast period: 1800 UTC 20 September 2019 to 0600 UTC 21 September 2019
Forecast type: FROM: standard forecast or significant change
Winds: from the S (190 degrees) at 7 MPH (6 knots; 3.1 m/s)
Visibility: 6 or more miles 10+ km)
Clouds: clear skies
Weather: no significant weather forecast for this period